Terminal Aerodrome Forecast
Issued by NWS

Home | Current Version | Previous Version | Text Only | Print | Product List | Glossary On
Versions: 1 2 3 4 5 6 7 8 9 10 11 12
000
FTAK31 PAJN 021100
TAFAGY
TAF
PAGY 021122Z 0212/0312 VRB03KT 6SM -RA BR SCT015 SCT025 OVC050
     FM021800 21018G28KT P6SM -SHRA SCT025 OVC050
     FM030000 21025G35KT P6SM VCSH OVC050
      AMD LTD TO CLD VIS AND WIND=

USA.gov is the U.S. government's official web portal to all federal, state and local government web resources and services.